Time;durP1;ratioP1;P1;durP2;ratioP2;P2;SDS_P1;SDS_P2;PMS_P1;PMS_P2;Temp;Humidity;BMP_temperature;BMP_pressure;BME280_temperature;BME280_humidity;BME280_pressure;Samples;Min_cycle;Max_cycle;Signal;HPM_P1;HPM_P2
2022/06/08 00:02:08;;;;;;;5.00;4.57;;;21.00;86.90;;;;;;6097763;23;20798;-75
2022/06/08 00:04:36;;;;;;;4.30;3.63;;;20.90;86.90;;;;;;6098039;23;20922;-83
2022/06/08 00:07:03;;;;;;;5.93;5.30;;;20.90;86.90;;;;;;6098595;23;20785;-78
2022/06/08 00:09:30;;;;;;;4.00;3.60;;;20.90;86.90;;;;;;6094827;23;20442;-76
2022/06/08 00:11:57;;;;;;;5.00;4.60;;;21.00;87.10;;;;;;6096630;23;20926;-83
2022/06/08 00:14:25;;;;;;;4.70;4.20;;;21.00;87.30;;;;;;6096198;23;20462;-83
2022/06/08 00:16:56;;;;;;;5.13;4.63;;;20.90;87.30;;;;;;6096054;23;20453;-76
2022/06/08 00:19:23;;;;;;;5.00;4.23;;;21.00;87.50;;;;;;6095119;23;20916;-76
2022/06/08 00:21:53;;;;;;;3.67;3.37;;;20.90;87.30;;;;;;6097216;23;20444;-77
2022/06/08 00:24:20;;;;;;;3.70;3.40;;;20.90;87.20;;;;;;6097311;23;20445;-83
2022/06/08 00:26:47;;;;;;;4.13;3.70;;;20.90;87.20;;;;;;6096115;23;20536;-77
2022/06/08 00:29:16;;;;;;;6.17;4.90;;;20.90;87.40;;;;;;6098072;23;20494;-83
2022/06/08 00:31:43;;;;;;;4.23;3.87;;;21.00;87.40;;;;;;6095031;23;20432;-83
2022/06/08 00:34:11;;;;;;;4.50;3.50;;;20.90;87.10;;;;;;6100898;23;21012;-82
2022/06/08 00:36:39;;;;;;;4.57;3.60;;;20.90;87.00;;;;;;6100333;23;20444;-83
2022/06/08 00:39:06;;;;;;;4.27;3.97;;;20.90;87.10;;;;;;6099822;23;20738;-83
2022/06/08 00:41:41;;;;;;;3.80;3.50;;;20.90;87.30;;;;;;6097115;23;20438;-77
2022/06/08 00:44:12;;;;;;;4.60;4.23;;;20.90;87.40;;;;;;6095639;23;20967;-76
2022/06/08 00:46:40;;;;;;;7.00;5.90;;;21.00;88.20;;;;;;6101657;23;20447;-82
2022/06/08 00:49:17;;;;;;;5.40;4.90;;;21.00;88.20;;;;;;6096644;23;20441;-76
2022/06/08 00:51:44;;;;;;;6.20;5.60;;;20.90;88.10;;;;;;6094755;23;20842;-77
2022/06/08 00:54:19;;;;;;;5.13;4.73;;;20.90;88.40;;;;;;6094603;23;20450;-78
2022/06/08 00:56:51;;;;;;;5.93;5.33;;;20.90;88.50;;;;;;6095230;23;20793;-78
2022/06/08 00:59:18;;;;;;;6.33;4.77;;;20.90;88.80;;;;;;6104741;23;20575;-83
2022/06/08 01:01:45;;;;;;;4.43;4.03;;;20.90;89.10;;;;;;6105755;23;20502;-83
2022/06/08 01:04:17;;;;;;;5.47;4.90;;;20.90;89.30;;;;;;6103770;23;20440;-78
2022/06/08 01:06:48;;;;;;;5.33;4.83;;;20.90;89.50;;;;;;6097897;23;20870;-77
2022/06/08 01:09:19;;;;;;;4.30;4.00;;;20.80;89.60;;;;;;6096920;23;20471;-78
2022/06/08 01:11:48;;;;;;;3.87;3.57;;;20.80;89.60;;;;;;6096310;23;20466;-77
2022/06/08 01:14:17;;;;;;;4.70;4.20;;;20.80;89.60;;;;;;6106110;23;20493;-77
2022/06/08 01:16:48;;;;;;;4.63;4.20;;;20.80;89.60;;;;;;6097187;23;20496;-76
2022/06/08 01:19:16;;;;;;;4.67;4.27;;;20.70;89.90;;;;;;6097376;23;20772;-83
2022/06/08 01:21:53;;;;;;;3.87;3.57;;;20.70;90.00;;;;;;6096745;23;21857;-77
2022/06/08 01:24:21;;;;;;;3.73;3.43;;;20.70;90.20;;;;;;6096306;23;20744;-78
2022/06/08 01:26:58;;;;;;;5.60;4.53;;;20.70;90.30;;;;;;6096888;23;20433;-77
2022/06/08 01:29:31;;;;;;;3.97;3.57;;;20.70;90.30;;;;;;6095607;23;20441;-77
2022/06/08 01:32:06;;;;;;;4.67;4.27;;;20.70;90.30;;;;;;6097888;23;20427;-77
2022/06/08 01:34:42;;;;;;;3.97;3.67;;;20.70;90.30;;;;;;6096369;23;20498;-83
2022/06/08 01:37:22;;;;;;;4.93;4.43;;;20.60;90.30;;;;;;6097553;23;20444;-78
2022/06/08 01:40:03;;;;;;;4.73;4.30;;;20.60;90.50;;;;;;6094812;23;20780;-78
2022/06/08 01:42:47;;;;;;;5.60;5.10;;;20.60;90.60;;;;;;6096304;23;20441;-78
2022/06/08 01:45:38;;;;;;;4.90;4.50;;;20.50;90.50;;;;;;6095696;23;20915;-75
2022/06/08 01:48:25;;;;;;;5.23;4.63;;;20.50;90.60;;;;;;6092583;23;20447;-76
2022/06/08 01:51:00;;;;;;;5.17;4.77;;;20.50;90.80;;;;;;6098004;23;20729;-83
2022/06/08 01:53:42;;;;;;;6.70;6.10;;;20.40;90.90;;;;;;6097255;23;20721;-83
2022/06/08 01:56:17;;;;;;;4.83;4.43;;;20.40;91.00;;;;;;6095314;23;20437;-83
2022/06/08 01:58:53;;;;;;;4.90;4.50;;;20.40;91.00;;;;;;6096094;23;20448;-83
2022/06/08 02:01:27;;;;;;;4.23;3.93;;;20.30;91.00;;;;;;6095050;23;20423;-84
2022/06/08 02:04:04;;;;;;;4.33;3.83;;;20.30;91.20;;;;;;6095889;23;20498;-82
2022/06/08 02:06:40;;;;;;;4.00;3.70;;;20.30;91.30;;;;;;6097240;23;20466;-83
2022/06/08 02:09:14;;;;;;;4.60;4.30;;;20.20;91.30;;;;;;6095686;23;20446;-83
2022/06/08 02:11:46;;;;;;;4.37;4.07;;;20.20;91.40;;;;;;6097953;23;20788;-83
2022/06/08 02:14:15;;;;;;;5.03;4.63;;;20.20;91.50;;;;;;6097599;23;20484;-76
2022/06/08 02:16:46;;;;;;;5.77;5.23;;;20.20;91.60;;;;;;6098176;23;20811;-77
2022/06/08 02:19:17;;;;;;;11.37;10.27;;;20.20;91.60;;;;;;6097274;23;20432;-76
2022/06/08 02:21:48;;;;;;;8.30;7.50;;;20.10;91.70;;;;;;6097122;23;20508;-77
2022/06/08 02:24:22;;;;;;;6.00;5.40;;;20.10;91.70;;;;;;6097300;23;20439;-76
2022/06/08 02:26:55;;;;;;;5.57;5.17;;;20.10;91.90;;;;;;6097984;23;20455;-75
2022/06/08 02:29:26;;;;;;;5.40;4.57;;;20.10;91.90;;;;;;6097195;23;20427;-76
2022/06/08 02:31:58;;;;;;;5.63;5.13;;;20.10;92.00;;;;;;6100951;23;20442;-83
2022/06/08 02:34:32;;;;;;;5.37;4.80;;;20.10;91.90;;;;;;6100017;23;20428;-83
2022/06/08 02:37:09;;;;;;;4.30;4.00;;;20.10;91.90;;;;;;6099974;23;20498;-83
2022/06/08 02:39:42;;;;;;;4.20;3.90;;;20.10;91.80;;;;;;6099556;23;20439;-76
2022/06/08 02:42:15;;;;;;;4.40;4.10;;;20.10;91.70;;;;;;6099288;23;20476;-83
2022/06/08 02:44:44;;;;;;;5.63;4.90;;;20.10;91.70;;;;;;6101673;23;20435;-82
2022/06/08 02:47:16;;;;;;;4.60;4.20;;;20.10;91.70;;;;;;6100566;23;20443;-82
2022/06/08 02:49:43;;;;;;;6.00;5.50;;;20.10;91.60;;;;;;6099379;23;20759;-77
2022/06/08 02:52:17;;;;;;;6.43;5.93;;;20.10;91.70;;;;;;6101234;23;20431;-83
2022/06/08 02:54:46;;;;;;;6.73;6.13;;;20.10;91.70;;;;;;6106553;23;20442;-83
2022/06/08 02:57:20;;;;;;;7.60;6.90;;;20.10;91.80;;;;;;6110895;23;20441;-75
2022/06/08 02:59:53;;;;;;;8.73;5.70;;;20.10;91.90;;;;;;6107025;23;20465;-77
2022/06/08 03:02:25;;;;;;;6.17;5.67;;;20.10;91.90;;;;;;6101918;23;20497;-77
2022/06/08 03:04:58;;;;;;;6.77;6.13;;;20.10;91.90;;;;;;6101924;23;20450;-79
2022/06/08 03:07:29;;;;;;;5.90;5.40;;;20.10;91.90;;;;;;6103214;23;20844;-82
2022/06/08 03:10:00;;;;;;;5.63;5.23;;;20.10;92.00;;;;;;6099841;23;20445;-83
2022/06/08 03:12:31;;;;;;;4.77;4.30;;;20.20;92.00;;;;;;6097661;23;20872;-82
2022/06/08 03:15:01;;;;;;;5.03;4.47;;;20.10;92.00;;;;;;6097992;23;20440;-77
2022/06/08 03:17:32;;;;;;;4.57;4.17;;;20.10;92.00;;;;;;6097173;23;20848;-76
2022/06/08 03:20:00;;;;;;;4.60;4.20;;;20.10;92.00;;;;;;6095583;23;20460;-76
2022/06/08 03:22:28;;;;;;;5.13;4.53;;;20.10;92.00;;;;;;6097141;23;20436;-83
2022/06/08 03:24:57;;;;;;;5.60;4.20;;;20.10;92.10;;;;;;6097554;23;20439;-77
2022/06/08 03:27:25;;;;;;;5.73;5.23;;;20.10;92.10;;;;;;6096518;23;20455;-77
2022/06/08 03:29:52;;;;;;;4.37;3.77;;;20.10;92.20;;;;;;6098356;23;20451;-82
2022/06/08 03:32:19;;;;;;;4.03;3.73;;;20.10;92.30;;;;;;6097770;23;20467;-83
2022/06/08 03:34:46;;;;;;;4.13;3.43;;;20.10;92.40;;;;;;6098161;23;20954;-82
2022/06/08 03:37:13;;;;;;;4.37;3.97;;;20.10;92.40;;;;;;6096817;23;20443;-76
2022/06/08 03:39:40;;;;;;;3.80;3.10;;;20.10;92.40;;;;;;6098092;23;20444;-82
2022/06/08 03:42:09;;;;;;;3.20;3.00;;;20.10;92.40;;;;;;6096974;23;20440;-76
2022/06/08 03:44:37;;;;;;;6.10;3.83;;;20.20;92.40;;;;;;6097028;23;20431;-76
2022/06/08 03:47:08;;;;;;;4.20;3.80;;;20.20;92.40;;;;;;6085737;23;20457;-82
2022/06/08 03:49:35;;;;;;;4.57;4.07;;;20.20;92.40;;;;;;6097427;23;20443;-83
2022/06/08 03:52:07;;;;;;;4.13;3.73;;;20.20;92.50;;;;;;6096716;23;20498;-82
2022/06/08 03:54:39;;;;;;;3.60;3.27;;;20.30;92.50;;;;;;6096996;23;20435;-82
2022/06/08 03:57:10;;;;;;;3.83;3.53;;;20.30;92.50;;;;;;6095886;23;20989;-76
2022/06/08 03:59:40;;;;;;;4.83;4.33;;;20.30;92.50;;;;;;6096907;23;20421;-82
2022/06/08 04:02:08;;;;;;;4.37;3.40;;;20.40;92.50;;;;;;6097455;23;20504;-81
2022/06/08 04:04:35;;;;;;;6.50;4.23;;;20.40;92.30;;;;;;6096734;23;20437;-83
2022/06/08 04:07:02;;;;;;;3.30;3.10;;;20.40;92.30;;;;;;6097515;23;20444;-83
2022/06/08 04:09:29;;;;;;;3.37;3.07;;;20.40;92.20;;;;;;6097390;23;20439;-83
2022/06/08 04:11:56;;;;;;;4.47;2.73;;;20.50;92.20;;;;;;6097818;23;20436;-82
2022/06/08 04:14:25;;;;;;;4.20;3.10;;;20.60;92.00;;;;;;6096203;23;20455;-76
2022/06/08 04:16:52;;;;;;;3.40;3.20;;;20.60;91.70;;;;;;6097251;23;20720;-76
2022/06/08 04:19:20;;;;;;;4.37;3.90;;;20.70;91.50;;;;;;6096289;23;20900;-81
2022/06/08 04:21:48;;;;;;;3.20;3.00;;;20.70;91.30;;;;;;6097449;23;20444;-82
2022/06/08 04:24:18;;;;;;;3.43;3.23;;;20.80;91.30;;;;;;6097170;23;20438;-76
2022/06/08 04:26:45;;;;;;;3.37;3.07;;;20.80;91.30;;;;;;6096950;23;20918;-76
2022/06/08 04:29:12;;;;;;;5.13;3.37;;;20.90;91.30;;;;;;6097113;23;20450;-75
2022/06/08 04:31:42;;;;;;;3.70;2.97;;;20.90;91.10;;;;;;6095764;23;20437;-75
2022/06/08 04:34:11;;;;;;;3.73;3.43;;;21.00;91.10;;;;;;6096839;23;20452;-75
2022/06/08 04:36:39;;;;;;;3.77;3.40;;;20.90;91.10;;;;;;6096560;23;20487;-75
2022/06/08 04:39:09;;;;;;;2.93;2.63;;;20.90;91.00;;;;;;6097011;23;20443;-75
2022/06/08 04:41:37;;;;;;;2.60;2.27;;;20.90;91.00;;;;;;6096332;23;20430;-76
2022/06/08 04:44:05;;;;;;;3.20;2.90;;;20.90;91.00;;;;;;6097065;23;20507;-82
2022/06/08 04:46:33;;;;;;;2.87;2.67;;;20.90;91.10;;;;;;6096505;23;20451;-82
2022/06/08 04:49:01;;;;;;;3.70;3.10;;;21.00;91.20;;;;;;6096907;23;20444;-75
2022/06/08 04:51:28;;;;;;;3.43;2.63;;;21.00;91.00;;;;;;6096457;23;20468;-76
2022/06/08 04:53:56;;;;;;;2.90;2.70;;;21.10;90.70;;;;;;6096965;23;20451;-82
2022/06/08 04:56:23;;;;;;;4.07;3.77;;;21.20;90.60;;;;;;6096502;23;20447;-82
2022/06/08 04:58:53;;;;;;;4.40;3.17;;;21.20;90.30;;;;;;6097063;23;20504;-82
2022/06/08 05:01:20;;;;;;;6.17;3.67;;;21.30;90.40;;;;;;6096741;23;20439;-82
2022/06/08 05:03:47;;;;;;;4.07;3.10;;;21.30;90.40;;;;;;6096873;23;20442;-83
2022/06/08 05:06:16;;;;;;;3.97;2.80;;;21.30;90.50;;;;;;6096194;23;20443;-83
2022/06/08 05:08:43;;;;;;;3.87;3.37;;;21.40;90.60;;;;;;6095619;23;20491;-83
2022/06/08 05:11:10;;;;;;;10.83;4.37;;;21.40;90.40;;;;;;6097964;23;20446;-83
2022/06/08 05:13:38;;;;;;;2.50;2.30;;;21.40;90.30;;;;;;6096547;23;20462;-83
2022/06/08 05:16:06;;;;;;;11.70;3.33;;;21.50;90.40;;;;;;6097353;23;20449;-83
2022/06/08 05:18:35;;;;;;;4.80;2.70;;;21.50;90.40;;;;;;6095956;23;20452;-77
2022/06/08 05:21:02;;;;;;;3.10;2.90;;;21.50;90.50;;;;;;6097212;23;20431;-76
2022/06/08 05:23:36;;;;;;;4.63;2.60;;;21.40;90.50;;;;;;6085392;23;20438;-77
2022/06/08 05:26:04;;;;;;;3.43;3.13;;;21.40;90.40;;;;;;6110341;23;20445;-83
2022/06/08 05:28:31;;;;;;;3.60;2.17;;;21.40;90.40;;;;;;6112174;23;20443;-83
2022/06/08 05:30:58;;;;;;;3.23;2.73;;;21.50;90.40;;;;;;6108769;23;20439;-83
2022/06/08 05:33:29;;;;;;;2.40;2.13;;;21.40;90.50;;;;;;6103576;23;20443;-83
2022/06/08 05:35:57;;;;;;;3.93;3.63;;;21.40;90.50;;;;;;6103793;23;20463;-83
2022/06/08 05:38:25;;;;;;;3.93;2.63;;;21.40;90.70;;;;;;6104801;23;20449;-83
2022/06/08 05:40:53;;;;;;;4.63;3.30;;;21.40;90.80;;;;;;6102391;23;20447;-83
2022/06/08 05:43:22;;;;;;;7.27;6.50;;;21.40;91.00;;;;;;6107240;23;20439;-84
2022/06/08 05:45:49;;;;;;;4.83;4.43;;;21.40;91.00;;;;;;6102711;23;20442;-83
2022/06/08 05:48:17;;;;;;;3.23;3.03;;;21.40;90.90;;;;;;6104766;23;20442;-83
2022/06/08 05:50:47;;;;;;;4.13;3.83;;;21.40;91.00;;;;;;6104678;23;20434;-83
2022/06/08 05:53:18;;;;;;;3.33;3.03;;;21.40;91.00;;;;;;6103217;23;20446;-83
2022/06/08 05:55:47;;;;;;;3.80;3.50;;;21.50;91.10;;;;;;6102223;23;20761;-81
2022/06/08 05:58:15;;;;;;;4.67;3.97;;;21.50;91.20;;;;;;6090536;23;20453;-83
2022/06/08 06:00:43;;;;;;;5.83;4.30;;;21.60;91.50;;;;;;6104722;23;20438;-83
2022/06/08 06:03:10;;;;;;;9.90;7.77;;;21.60;91.60;;;;;;6103988;23;20486;-83
2022/06/08 06:05:39;;;;;;;8.17;5.43;;;21.70;91.30;;;;;;6103606;23;20508;-81
2022/06/08 06:08:08;;;;;;;10.07;8.77;;;21.80;91.30;;;;;;6103533;23;20439;-82
2022/06/08 06:10:37;;;;;;;4.57;4.17;;;21.90;91.20;;;;;;6101686;23;20745;-82
2022/06/08 06:13:04;;;;;;;4.23;3.47;;;22.00;90.90;;;;;;6100508;23;20435;-76
2022/06/08 06:15:33;;;;;;;3.80;3.03;;;22.10;90.90;;;;;;6099244;23;20446;-76
2022/06/08 06:18:00;;;;;;;3.80;3.17;;;22.20;91.00;;;;;;6099364;23;20458;-76
2022/06/08 06:20:27;;;;;;;4.53;3.30;;;22.30;91.10;;;;;;6099622;23;20431;-83
2022/06/08 06:22:55;;;;;;;3.53;3.23;;;22.30;91.30;;;;;;6098755;23;20518;-83
2022/06/08 06:25:22;;;;;;;6.40;3.10;;;22.40;91.10;;;;;;6099188;23;20443;-83
2022/06/08 06:27:49;;;;;;;5.73;4.07;;;22.50;91.00;;;;;;6098233;23;20731;-76
2022/06/08 06:30:17;;;;;;;4.53;3.00;;;22.50;90.90;;;;;;6098935;23;20806;-76
2022/06/08 06:32:46;;;;;;;5.40;3.33;;;22.60;90.80;;;;;;6098207;23;20975;-77
2022/06/08 06:35:18;;;;;;;3.60;3.10;;;22.70;90.70;;;;;;6098307;23;20444;-76
2022/06/08 06:37:46;;;;;;;8.10;3.57;;;22.80;90.60;;;;;;6098367;23;20439;-76
2022/06/08 06:40:13;;;;;;;4.27;3.10;;;23.00;90.20;;;;;;6098928;23;20436;-76
2022/06/08 06:42:40;;;;;;;5.80;2.80;;;23.20;90.10;;;;;;6098217;23;20467;-76
2022/06/08 06:45:09;;;;;;;5.27;3.10;;;23.40;90.40;;;;;;6098772;23;20503;-76
2022/06/08 06:47:36;;;;;;;2.60;2.20;;;23.50;89.30;;;;;;6086489;23;20507;-77
2022/06/08 06:50:07;;;;;;;3.33;3.03;;;23.60;88.40;;;;;;6099044;23;20452;-76
2022/06/08 06:52:34;;;;;;;4.73;4.33;;;23.70;88.80;;;;;;6101495;23;20532;-83
2022/06/08 06:55:01;;;;;;;4.00;3.60;;;23.70;88.90;;;;;;6105415;23;20502;-83
2022/06/08 06:57:29;;;;;;;3.17;2.93;;;23.80;88.60;;;;;;6116993;23;20447;-83
2022/06/08 06:59:56;;;;;;;3.33;3.03;;;23.90;88.20;;;;;;6121900;23;20419;-83
2022/06/08 07:02:23;;;;;;;2.60;2.40;;;23.90;87.50;;;;;;6107475;23;20432;-82
2022/06/08 07:04:51;;;;;;;3.10;2.90;;;24.00;88.00;;;;;;6120137;23;20440;-83
2022/06/08 07:07:19;;;;;;;3.03;2.57;;;24.00;87.60;;;;;;6104414;23;20439;-76
2022/06/08 07:09:46;;;;;;;3.20;2.07;;;24.20;87.60;;;;;;6097610;23;20435;-77
2022/06/08 07:12:14;;;;;;;4.13;3.20;;;24.30;87.20;;;;;;6097994;23;20435;-76
2022/06/08 07:14:41;;;;;;;8.43;2.90;;;24.40;87.70;;;;;;6097670;23;20440;-76
2022/06/08 07:17:08;;;;;;;3.47;3.17;;;24.40;86.60;;;;;;6096294;23;20431;-76
2022/06/08 07:19:35;;;;;;;3.20;2.70;;;24.50;86.80;;;;;;6097697;23;20450;-76
2022/06/08 07:22:02;;;;;;;3.83;3.17;;;24.50;86.70;;;;;;6096376;23;20439;-77
2022/06/08 07:24:33;;;;;;;2.93;2.73;;;24.60;85.70;;;;;;6097524;23;20439;-77
2022/06/08 07:27:01;;;;;;;3.57;3.03;;;24.70;86.30;;;;;;6096792;23;20943;-76
2022/06/08 07:29:28;;;;;;;3.23;2.93;;;24.70;86.40;;;;;;6097352;23;20443;-76
2022/06/08 07:31:55;;;;;;;5.23;4.20;;;24.60;86.20;;;;;;6096589;23;20439;-78
2022/06/08 07:34:23;;;;;;;5.13;3.10;;;24.60;86.50;;;;;;6097167;23;20432;-76
2022/06/08 07:36:50;;;;;;;4.50;3.47;;;24.50;86.50;;;;;;6080844;23;20923;-77
2022/06/08 07:39:19;;;;;;;3.57;3.00;;;24.50;86.80;;;;;;6097733;23;20431;-76
2022/06/08 07:41:49;;;;;;;2.50;2.23;;;24.50;86.10;;;;;;6097852;23;20447;-83
2022/06/08 07:44:17;;;;;;;2.63;2.23;;;24.40;86.10;;;;;;6095985;23;20490;-76
2022/06/08 07:46:45;;;;;;;3.67;2.80;;;24.40;86.80;;;;;;6097139;23;20439;-76
2022/06/08 07:52:00;;;;;;;2.87;2.30;;;24.30;87.50;;;;;;6097956;23;20459;-79
2022/06/08 07:54:30;;;;;;;3.23;2.23;;;24.40;87.50;;;;;;6086130;23;20445;-76
2022/06/08 07:57:01;;;;;;;3.10;2.10;;;24.40;87.10;;;;;;6096237;23;20439;-76
2022/06/08 07:59:31;;;;;;;3.17;2.90;;;24.50;87.00;;;;;;6096177;23;20466;-75
2022/06/08 08:01:58;;;;;;;2.83;2.50;;;24.60;87.20;;;;;;6096898;23;20504;-77
2022/06/08 08:04:25;;;;;;;3.37;2.40;;;24.80;86.30;;;;;;6096839;23;20451;-77
2022/06/08 08:06:55;;;;;;;2.70;2.50;;;25.00;86.30;;;;;;6096916;23;20444;-77
2022/06/08 08:09:23;;;;;;;2.70;2.50;;;25.20;85.40;;;;;;6093094;23;20427;-77
2022/06/08 08:11:52;;;;;;;2.67;2.47;;;25.30;84.60;;;;;;6097519;23;20502;-83
2022/06/08 08:14:22;;;;;;;5.87;3.27;;;25.40;84.30;;;;;;6096796;23;20577;-82
2022/06/08 08:16:50;;;;;;;3.93;2.30;;;25.40;84.20;;;;;;6097789;23;20436;-82
2022/06/08 08:19:20;;;;;;;2.67;2.20;;;25.40;84.40;;;;;;6097822;23;20966;-82
2022/06/08 08:21:48;;;;;;;2.40;2.20;;;25.30;84.70;;;;;;6097784;23;20462;-83
2022/06/08 08:24:15;;;;;;;3.67;2.30;;;25.50;84.70;;;;;;6098349;23;20518;-82
2022/06/08 08:26:45;;;;;;;2.33;1.90;;;25.60;84.20;;;;;;6097282;23;20506;-76
2022/06/08 08:29:14;;;;;;;2.50;2.10;;;25.70;84.30;;;;;;6096732;23;20435;-77
2022/06/08 08:31:42;;;;;;;2.50;2.17;;;25.80;83.90;;;;;;6096363;23;20494;-78
2022/06/08 08:34:10;;;;;;;2.80;2.60;;;25.90;84.30;;;;;;6095037;23;20435;-77
2022/06/08 08:36:37;;;;;;;3.90;3.60;;;26.10;84.20;;;;;;6097312;23;20439;-77
2022/06/08 08:39:04;;;;;;;3.73;2.90;;;26.20;83.40;;;;;;6096643;23;20428;-82
2022/06/08 08:44:32;;;;;;;3.60;3.33;;;26.30;82.60;;;;;;6098887;23;20438;-83
2022/06/08 08:47:09;;;;;;;3.80;3.50;;;26.30;82.30;;;;;;6100336;23;20435;-82
2022/06/08 08:49:39;;;;;;;4.70;1.67;;;26.40;82.30;;;;;;6102343;23;20722;-82
2022/06/08 08:52:25;;;;;;;4.87;3.33;;;26.40;81.90;;;;;;6098641;23;20514;-76
2022/06/08 08:54:58;;;;;;;3.00;2.50;;;26.40;80.70;;;;;;6098497;23;20436;-81
2022/06/08 08:57:31;;;;;;;3.37;3.10;;;26.40;81.20;;;;;;6100864;23;20436;-82
2022/06/08 08:59:59;;;;;;;3.33;2.50;;;26.40;80.90;;;;;;6097479;23;20454;-75
2022/06/08 09:05:19;;;;;;;2.97;2.70;;;26.50;80.50;;;;;;6099477;23;20499;-82
2022/06/08 09:07:47;;;;;;;3.43;2.80;;;26.40;80.30;;;;;;6100743;23;20514;-83
2022/06/08 09:10:17;;;;;;;4.97;2.87;;;26.40;80.50;;;;;;6096964;23;20424;-76
2022/06/08 09:12:46;;;;;;;2.53;2.33;;;26.30;80.40;;;;;;6096665;23;20446;-77
2022/06/08 09:15:15;;;;;;;3.00;2.80;;;26.30;80.60;;;;;;6096814;23;21011;-76
2022/06/08 09:17:56;;;;;;;3.63;2.43;;;26.10;80.70;;;;;;6098739;23;20462;-76
2022/06/08 09:20:27;;;;;;;2.20;2.10;;;26.10;81.00;;;;;;6097680;23;20438;-76
2022/06/08 09:22:57;;;;;;;3.67;3.37;;;26.10;80.80;;;;;;6098533;23;20443;-76
2022/06/08 09:25:30;;;;;;;5.43;4.27;;;26.10;81.00;;;;;;6098386;23;20449;-76
2022/06/08 09:27:59;;;;;;;3.20;3.00;;;26.00;81.70;;;;;;6098527;23;20979;-76
2022/06/08 09:30:28;;;;;;;4.37;3.97;;;26.00;82.10;;;;;;6098358;23;20864;-77
2022/06/08 09:32:59;;;;;;;2.63;2.43;;;26.10;81.90;;;;;;6098709;23;20569;-77
2022/06/08 09:35:30;;;;;;;3.33;1.97;;;26.20;81.20;;;;;;6098128;23;20901;-77
2022/06/08 09:38:02;;;;;;;3.03;2.83;;;26.30;80.80;;;;;;6100871;23;20501;-83
2022/06/08 09:40:40;;;;;;;3.90;1.80;;;26.30;80.30;;;;;;6105479;23;20427;-82
2022/06/08 09:43:42;;;;;;;2.10;1.93;;;26.20;78.90;;;;;;6107610;23;20451;-83
2022/06/08 09:46:16;;;;;;;1.90;1.60;;;26.10;78.80;;;;;;6105254;23;20435;-84
2022/06/08 09:52:05;;;;;;;2.10;1.90;;;26.10;78.40;;;;;;6098260;23;20438;-77
2022/06/08 09:54:41;;;;;;;5.33;2.90;;;26.10;78.10;;;;;;6097290;23;20477;-82
2022/06/08 09:57:24;;;;;;;3.17;2.00;;;26.00;78.60;;;;;;6098118;23;20435;-84
2022/06/08 10:00:06;;;;;;;2.80;1.70;;;26.00;78.70;;;;;;6095946;23;20432;-82
2022/06/08 10:02:44;;;;;;;3.47;3.17;;;26.10;80.10;;;;;;6111625;23;20439;-81
2022/06/08 10:05:23;;;;;;;3.77;3.47;;;26.10;80.50;;;;;;6113202;23;20455;-82
2022/06/08 10:08:16;;;;;;;3.83;3.53;;;26.10;80.00;;;;;;6110044;23;20451;-82
2022/06/08 10:10:52;;;;;;;2.90;2.70;;;26.20;80.60;;;;;;6110278;23;20470;-83
2022/06/08 10:13:26;;;;;;;3.80;3.50;;;26.20;81.00;;;;;;6110965;23;20438;-82
2022/06/08 10:15:58;;;;;;;3.07;2.87;;;26.20;81.20;;;;;;6113469;23;20443;-82
2022/06/08 10:18:29;;;;;;;3.40;3.00;;;26.10;80.20;;;;;;6115017;23;20439;-83
2022/06/08 10:21:02;;;;;;;3.47;3.27;;;26.10;80.40;;;;;;6104187;23;20511;-76
2022/06/08 10:23:37;;;;;;;2.70;2.60;;;26.10;80.80;;;;;;6098841;23;20434;-76
2022/06/08 10:26:14;;;;;;;2.63;2.00;;;26.20;79.80;;;;;;6096929;23;20435;-75
2022/06/08 10:28:46;;;;;;;6.60;5.67;;;26.20;79.30;;;;;;6099012;23;20499;-83
2022/06/08 10:31:19;;;;;;;7.00;6.50;;;26.30;79.70;;;;;;6100882;23;20443;-83
2022/06/08 10:33:53;;;;;;;6.43;5.53;;;26.30;79.70;;;;;;6098974;23;20436;-77
2022/06/08 10:36:22;;;;;;;6.07;5.03;;;26.50;79.30;;;;;;6097858;23;20446;-78
2022/06/08 10:38:56;;;;;;;5.10;4.70;;;26.50;79.30;;;;;;6079950;23;20436;-77
2022/06/08 10:44:36;;;;;;;3.60;3.30;;;26.60;78.90;;;;;;6097111;23;20494;-77
2022/06/08 10:47:17;;;;;;;3.30;2.53;;;26.60;77.10;;;;;;6098347;23;20443;-84
2022/06/08 10:49:54;;;;;;;3.70;3.40;;;26.50;76.70;;;;;;6098332;23;20443;-77
2022/06/08 10:52:47;;;;;;;2.70;2.50;;;26.50;77.20;;;;;;6097501;23;20431;-77
2022/06/08 10:55:33;;;;;;;2.30;2.10;;;26.40;77.30;;;;;;6096780;23;20450;-84
2022/06/08 10:58:07;;;;;;;3.10;2.10;;;26.40;77.40;;;;;;6096532;23;20428;-84
2022/06/08 11:01:24;;;;;;;2.17;1.30;;;26.40;77.70;;;;;;6115278;23;20438;-84
2022/06/08 11:03:56;;;;;;;2.40;1.77;;;26.30;75.90;;;;;;6076409;23;20439;-75
2022/06/08 11:07:03;;;;;;;1.90;1.70;;;26.30;75.60;;;;;;6105049;23;20496;-76
2022/06/08 11:10:01;;;;;;;1.63;1.53;;;26.30;75.70;;;;;;6105785;23;20432;-75
2022/06/08 11:13:06;;;;;;;2.07;1.73;;;26.30;75.60;;;;;;6100226;23;20428;-76
2022/06/08 11:15:42;;;;;;;1.73;1.50;;;26.30;76.30;;;;;;6099948;23;20443;-76
2022/06/08 11:18:30;;;;;;;1.50;1.40;;;26.40;75.40;;;;;;6099432;23;20478;-76
2022/06/08 11:21:07;;;;;;;1.80;1.70;;;26.30;75.30;;;;;;6098837;23;20427;-77
2022/06/08 11:23:41;;;;;;;1.87;1.70;;;26.30;74.50;;;;;;6082606;23;20463;-75
2022/06/08 11:26:43;;;;;;;2.17;1.97;;;26.20;75.20;;;;;;6095813;23;20450;-76
2022/06/08 11:29:42;;;;;;;1.53;1.43;;;26.20;76.30;;;;;;6039001;23;20439;-75
2022/06/08 11:32:25;;;;;;;2.90;2.70;;;26.10;75.90;;;;;;6097239;23;20793;-77
2022/06/08 11:35:07;;;;;;;1.83;1.73;;;26.10;75.90;;;;;;6097909;23;20431;-77
2022/06/08 11:37:49;;;;;;;2.50;2.30;;;26.00;75.70;;;;;;6096539;23;20447;-77
2022/06/08 11:40:28;;;;;;;4.53;3.40;;;26.20;76.20;;;;;;6083330;23;20518;-76
2022/06/08 11:43:03;;;;;;;5.90;5.40;;;26.30;77.30;;;;;;6097833;23;20443;-76
2022/06/08 11:45:42;;;;;;;4.40;3.33;;;26.40;77.10;;;;;;6097279;23;20450;-79
2022/06/08 11:48:14;;;;;;;3.10;2.10;;;26.50;76.60;;;;;;6096412;23;20432;-76
2022/06/08 11:54:22;;;;;;;6.97;6.27;;;26.60;75.30;;;;;;6013353;23;20443;-78
2022/06/08 11:57:05;;;;;;;2.40;2.30;;;26.70;75.30;;;;;;6096032;23;20455;-76
2022/06/08 11:59:38;;;;;;;4.17;2.67;;;26.80;74.90;;;;;;6097187;23;20745;-76
2022/06/08 12:02:18;;;;;;;6.10;4.37;;;26.70;74.10;;;;;;6096254;23;20435;-77
2022/06/08 12:04:49;;;;;;;1.90;1.63;;;26.70;73.70;;;;;;6083644;23;20443;-77
2022/06/08 12:07:50;;;;;;;4.73;2.10;;;26.70;73.60;;;;;;6097355;23;20712;-76
2022/06/08 12:10:20;;;;;;;8.80;8.00;;;26.70;73.90;;;;;;6097163;23;20433;-76
2022/06/08 12:12:48;;;;;;;6.57;6.07;;;26.70;74.50;;;;;;6096001;23;20904;-76
2022/06/08 12:15:36;;;;;;;5.40;4.97;;;26.70;74.70;;;;;;6096759;23;20435;-77
2022/06/08 12:18:20;;;;;;;3.30;2.33;;;26.60;74.60;;;;;;6096174;23;20436;-76
2022/06/08 12:20:48;;;;;;;1.80;1.70;;;26.60;74.50;;;;;;6097192;23;20439;-77
2022/06/08 12:23:15;;;;;;;6.10;2.70;;;26.60;74.10;;;;;;6096470;23;20436;-76
2022/06/08 12:25:53;;;;;;;3.87;3.30;;;26.60;74.60;;;;;;6097445;23;20443;-76
2022/06/08 12:28:20;;;;;;;4.23;3.70;;;26.60;74.10;;;;;;6095669;23;20459;-76
2022/06/08 12:30:59;;;;;;;4.07;2.77;;;26.60;74.20;;;;;;6097354;23;20463;-84
2022/06/08 12:33:29;;;;;;;1.93;1.60;;;26.60;73.30;;;;;;6098278;23;20506;-84
2022/06/08 12:35:58;;;;;;;3.73;2.03;;;26.60;73.60;;;;;;6098004;23;20446;-83
2022/06/08 12:38:27;;;;;;;1.77;1.30;;;26.60;73.50;;;;;;6097057;23;20741;-77
2022/06/08 12:41:02;;;;;;;1.40;1.30;;;26.60;73.20;;;;;;6098153;23;20931;-85
2022/06/08 12:43:43;;;;;;;2.73;1.20;;;26.60;73.80;;;;;;6097930;23;20511;-85
2022/06/08 12:46:19;;;;;;;1.57;1.20;;;26.50;73.20;;;;;;6097109;23;20455;-84
2022/06/08 12:48:49;;;;;;;1.40;1.27;;;26.50;73.50;;;;;;6099306;23;20431;-85
2022/06/08 12:51:33;;;;;;;1.27;1.17;;;26.50;72.80;;;;;;6098287;23;20888;-84
2022/06/08 12:54:02;;;;;;;3.60;3.30;;;26.50;72.80;;;;;;6097624;23;20439;-76
2022/06/08 12:56:30;;;;;;;4.93;4.43;;;26.50;73.00;;;;;;6096694;23;20436;-76
2022/06/08 12:58:58;;;;;;;5.37;4.87;;;26.50;73.60;;;;;;6096701;23;20935;-77
2022/06/08 13:01:29;;;;;;;5.03;4.53;;;26.50;73.60;;;;;;6082248;23;20447;-77
2022/06/08 13:03:57;;;;;;;5.63;5.20;;;26.50;73.80;;;;;;6096396;23;20748;-76
2022/06/08 13:06:33;;;;;;;6.67;6.07;;;26.50;74.10;;;;;;6097081;23;20443;-84
2022/06/08 13:09:01;;;;;;;10.23;9.20;;;26.50;74.00;;;;;;6096795;23;20927;-84
2022/06/08 13:11:28;;;;;;;4.80;4.40;;;26.40;74.50;;;;;;6097408;23;20443;-84
2022/06/08 13:13:56;;;;;;;4.80;3.70;;;26.40;74.30;;;;;;6098414;23;20443;-84
2022/06/08 13:16:27;;;;;;;4.03;3.43;;;26.30;74.00;;;;;;6096893;23;20453;-84
2022/06/08 13:18:56;;;;;;;5.00;4.33;;;26.30;73.40;;;;;;6098078;23;20424;-84
2022/06/08 13:21:25;;;;;;;6.30;5.70;;;26.20;74.20;;;;;;6097277;23;20915;-84
2022/06/08 13:23:53;;;;;;;1.73;1.60;;;26.10;75.40;;;;;;6098427;23;20450;-84
2022/06/08 13:26:23;;;;;;;4.00;3.70;;;26.10;75.80;;;;;;6098035;23;20475;-84
2022/06/08 13:28:52;;;;;;;2.77;2.30;;;26.10;75.60;;;;;;6097912;23;20514;-84